Time;durP1;ratioP1;P1;durP2;ratioP2;P2;SDS_P1;SDS_P2;PMS_P1;PMS_P2;Temp;Humidity;BMP_temperature;BMP_pressure;BME280_temperature;BME280_humidity;BME280_pressure;Samples;Min_cycle;Max_cycle;Signal;HPM_P1;HPM_P2
2021/01/07 00:01:13;;;;;;;20.47;9.93;;;2.50;92.80;;;;;;5054397;28;20032;-73
2021/01/07 00:03:39;;;;;;;19.67;9.70;;;2.50;92.90;;;;;;5053143;28;20020;-73
2021/01/07 00:06:07;;;;;;;23.53;10.30;;;2.50;92.90;;;;;;5052458;28;20450;-73
2021/01/07 00:08:33;;;;;;;23.77;10.63;;;2.50;92.90;;;;;;5053018;28;20087;-73
2021/01/07 00:10:58;;;;;;;19.93;10.23;;;2.50;92.90;;;;;;5052437;28;20462;-73
2021/01/07 00:13:24;;;;;;;21.73;10.03;;;2.60;93.00;;;;;;5053033;28;20020;-73
2021/01/07 00:15:49;;;;;;;22.27;10.30;;;2.60;92.80;;;;;;5053284;28;20021;-73
2021/01/07 00:18:15;;;;;;;22.10;10.30;;;2.60;92.80;;;;;;5052952;28;20021;-73
2021/01/07 00:20:41;;;;;;;23.57;10.80;;;2.60;92.80;;;;;;5052809;28;20032;-73
2021/01/07 00:23:06;;;;;;;24.83;11.20;;;2.50;92.80;;;;;;5052215;28;20029;-73
2021/01/07 00:25:32;;;;;;;22.37;10.30;;;2.50;92.80;;;;;;5053999;28;20355;-73
2021/01/07 00:27:57;;;;;;;25.60;10.97;;;2.50;92.90;;;;;;5052134;28;20028;-73
2021/01/07 00:30:23;;;;;;;20.97;10.53;;;2.50;92.90;;;;;;5053547;28;20045;-73
2021/01/07 00:32:48;;;;;;;24.43;11.23;;;2.50;92.90;;;;;;5052026;28;20043;-73
2021/01/07 00:35:14;;;;;;;24.37;10.70;;;2.50;92.80;;;;;;5052567;28;20049;-73
2021/01/07 00:37:40;;;;;;;22.63;10.60;;;2.50;92.80;;;;;;5052555;28;20017;-73
2021/01/07 00:40:06;;;;;;;25.03;10.83;;;2.50;92.80;;;;;;5052826;28;20025;-73
2021/01/07 00:42:31;;;;;;;27.30;12.27;;;2.50;92.80;;;;;;5052682;28;20064;-73
2021/01/07 00:44:57;;;;;;;22.90;11.10;;;2.50;92.80;;;;;;5053079;28;20421;-73
2021/01/07 00:47:23;;;;;;;25.97;11.27;;;2.60;92.80;;;;;;5053982;28;20025;-73
2021/01/07 00:49:48;;;;;;;25.47;11.20;;;2.50;92.80;;;;;;5052917;28;20438;-72
2021/01/07 00:52:14;;;;;;;25.53;11.67;;;2.50;92.80;;;;;;5052275;28;20056;-73
2021/01/07 00:54:41;;;;;;;26.70;11.47;;;2.50;92.70;;;;;;5053851;28;20442;-73
2021/01/07 00:57:06;;;;;;;26.17;11.60;;;2.50;92.80;;;;;;5052856;28;20017;-73
2021/01/07 00:59:32;;;;;;;28.10;11.90;;;2.50;92.80;;;;;;5053172;28;20035;-73
2021/01/07 01:01:58;;;;;;;24.47;11.13;;;2.50;92.80;;;;;;5052697;28;20096;-73
2021/01/07 01:04:23;;;;;;;25.43;11.40;;;2.50;92.80;;;;;;5053257;28;20028;-73
2021/01/07 01:06:49;;;;;;;29.00;13.00;;;2.60;92.90;;;;;;5051404;28;20021;-73
2021/01/07 01:09:15;;;;;;;27.67;12.00;;;2.60;92.80;;;;;;5052171;28;20055;-73
2021/01/07 01:11:48;;;;;;;27.70;11.57;;;2.60;92.80;;;;;;5051952;28;20025;-73
2021/01/07 01:14:15;;;;;;;29.80;11.60;;;2.60;92.70;;;;;;5051857;28;20021;-73
2021/01/07 01:16:40;;;;;;;27.27;12.13;;;2.50;92.80;;;;;;5051898;28;20021;-73
2021/01/07 01:19:06;;;;;;;31.90;12.93;;;2.50;92.80;;;;;;5051129;28;20487;-73
2021/01/07 01:21:32;;;;;;;33.70;12.83;;;2.50;92.80;;;;;;5051371;28;20470;-73
2021/01/07 01:23:59;;;;;;;33.53;14.00;;;2.50;92.80;;;;;;5051085;28;20052;-73
2021/01/07 01:26:24;;;;;;;32.50;13.83;;;2.50;92.80;;;;;;5051805;28;20029;-73
2021/01/07 01:28:50;;;;;;;35.17;13.50;;;2.40;92.90;;;;;;5051959;28;20104;-73
2021/01/07 01:31:17;;;;;;;32.23;13.10;;;2.50;92.90;;;;;;5051333;28;20098;-73
2021/01/07 01:33:42;;;;;;;38.47;14.00;;;2.50;93.00;;;;;;5051589;28;20032;-73
2021/01/07 01:36:08;;;;;;;34.53;14.23;;;2.50;92.90;;;;;;5050954;28;20032;-73
2021/01/07 01:38:34;;;;;;;35.07;14.20;;;2.50;92.80;;;;;;5052556;28;20440;-73
2021/01/07 01:41:02;;;;;;;35.50;13.90;;;2.50;92.80;;;;;;5052111;28;20063;-73
2021/01/07 01:43:28;;;;;;;36.17;14.40;;;2.50;92.70;;;;;;5051319;28;20028;-73
2021/01/07 01:45:53;;;;;;;36.80;14.03;;;2.50;92.80;;;;;;5050477;28;20029;-73
2021/01/07 01:48:19;;;;;;;37.87;14.47;;;2.50;92.70;;;;;;5051573;28;20025;-73
2021/01/07 01:50:45;;;;;;;37.63;14.67;;;2.50;92.70;;;;;;5051384;28;20024;-73
2021/01/07 01:53:11;;;;;;;35.43;14.13;;;2.50;92.70;;;;;;5051955;28;20108;-73
2021/01/07 01:55:37;;;;;;;34.17;14.03;;;2.50;92.80;;;;;;5052517;28;20025;-73
2021/01/07 01:58:03;;;;;;;38.83;15.07;;;2.50;92.70;;;;;;5051887;28;20497;-73
2021/01/07 02:00:29;;;;;;;38.07;14.43;;;2.50;92.80;;;;;;5051294;28;20405;-73
2021/01/07 02:02:55;;;;;;;36.43;15.27;;;2.50;92.80;;;;;;5051547;28;20017;-72
2021/01/07 02:05:20;;;;;;;37.47;14.93;;;2.50;92.80;;;;;;5052141;28;20017;-73
2021/01/07 02:07:48;;;;;;;37.13;14.40;;;2.50;92.70;;;;;;5052702;28;20099;-73
2021/01/07 02:10:15;;;;;;;38.63;15.77;;;2.50;92.80;;;;;;5050502;28;20025;-73
2021/01/07 02:12:45;;;;;;;37.17;15.37;;;2.50;92.80;;;;;;5051094;28;20024;-73
2021/01/07 02:15:13;;;;;;;33.40;13.60;;;2.50;92.80;;;;;;5052855;28;20520;-73
2021/01/07 02:17:38;;;;;;;34.40;13.13;;;2.60;92.70;;;;;;5055140;28;20021;-73
2021/01/07 02:20:05;;;;;;;39.43;14.53;;;2.60;92.60;;;;;;5055773;28;20028;-73
2021/01/07 02:22:31;;;;;;;38.43;14.53;;;2.60;92.60;;;;;;5055061;28;20473;-73
2021/01/07 02:24:56;;;;;;;35.63;14.47;;;2.60;92.60;;;;;;5054402;28;20025;-72
2021/01/07 02:27:22;;;;;;;43.13;15.83;;;2.60;92.50;;;;;;5056399;28;20056;-73
2021/01/07 02:29:48;;;;;;;42.00;15.53;;;2.60;92.60;;;;;;5055765;28;20053;-73
2021/01/07 02:32:13;;;;;;;36.37;13.87;;;2.60;92.60;;;;;;5054317;28;20098;-73
2021/01/07 02:34:39;;;;;;;36.47;13.93;;;2.60;92.70;;;;;;5056204;28;20029;-73
2021/01/07 02:37:05;;;;;;;32.07;13.43;;;2.70;92.60;;;;;;5055464;28;20048;-73
2021/01/07 02:39:31;;;;;;;32.03;13.43;;;2.70;92.30;;;;;;5056064;28;20025;-73
2021/01/07 02:41:57;;;;;;;35.07;12.93;;;2.70;92.30;;;;;;5054173;28;20084;-73
2021/01/07 02:44:23;;;;;;;31.93;13.10;;;2.70;92.40;;;;;;5054885;28;20017;-73
2021/01/07 02:46:50;;;;;;;40.13;14.67;;;2.70;92.50;;;;;;5054578;28;20025;-73
2021/01/07 02:49:16;;;;;;;38.80;15.50;;;2.60;92.40;;;;;;5055134;28;20086;-73
2021/01/07 02:51:42;;;;;;;39.33;14.77;;;2.60;92.50;;;;;;5054164;28;20492;-73
2021/01/07 02:54:08;;;;;;;34.13;13.63;;;2.60;92.50;;;;;;5055122;28;20032;-73
2021/01/07 02:56:33;;;;;;;34.47;14.17;;;2.60;92.50;;;;;;5055835;28;20450;-73
2021/01/07 02:59:00;;;;;;;37.73;14.40;;;2.60;92.50;;;;;;5053880;28;20032;-73
2021/01/07 03:01:26;;;;;;;41.20;15.07;;;2.60;92.40;;;;;;5054587;28;20049;-73
2021/01/07 03:03:51;;;;;;;40.87;15.13;;;2.60;92.40;;;;;;5055653;28;20454;-73
2021/01/07 03:06:17;;;;;;;37.47;14.67;;;2.60;92.50;;;;;;5054997;28;20069;-73
2021/01/07 03:08:43;;;;;;;38.20;14.60;;;2.60;92.60;;;;;;5055506;28;20091;-73
2021/01/07 03:11:10;;;;;;;39.73;13.93;;;2.60;92.60;;;;;;5054838;28;20025;-73
2021/01/07 03:13:35;;;;;;;45.73;16.67;;;2.50;92.60;;;;;;5055429;28;20021;-73
2021/01/07 03:16:01;;;;;;;39.13;15.07;;;2.50;92.70;;;;;;5053520;28;20515;-73
2021/01/07 03:18:27;;;;;;;38.90;15.37;;;2.50;92.70;;;;;;5055087;28;20029;-73
2021/01/07 03:20:52;;;;;;;38.63;14.63;;;2.50;92.60;;;;;;5054985;28;20055;-73
2021/01/07 03:23:18;;;;;;;41.90;15.43;;;2.50;92.60;;;;;;5053352;28;20040;-73
2021/01/07 03:25:43;;;;;;;48.07;16.93;;;2.50;92.70;;;;;;5054063;28;20021;-73
2021/01/07 03:28:09;;;;;;;39.60;14.90;;;2.50;92.70;;;;;;5053245;28;20453;-73
2021/01/07 03:30:35;;;;;;;39.10;14.43;;;2.40;92.70;;;;;;5053633;28;20071;-73
2021/01/07 03:33:00;;;;;;;42.13;14.77;;;2.50;92.70;;;;;;5053159;28;20370;-73
2021/01/07 03:35:26;;;;;;;43.03;14.93;;;2.50;92.70;;;;;;5054743;28;20053;-73
2021/01/07 03:37:51;;;;;;;36.43;14.07;;;2.50;92.60;;;;;;5054975;28;20028;-73
2021/01/07 03:40:17;;;;;;;37.33;15.33;;;2.50;92.60;;;;;;5054657;28;20036;-73
2021/01/07 03:42:43;;;;;;;42.63;15.03;;;2.40;92.60;;;;;;5055158;28;20028;-73
2021/01/07 03:45:09;;;;;;;38.23;16.27;;;2.40;92.50;;;;;;5052997;28;20458;-73
2021/01/07 03:47:34;;;;;;;38.10;14.27;;;2.40;92.60;;;;;;5054783;28;20104;-73
2021/01/07 03:50:00;;;;;;;40.00;14.73;;;2.40;92.50;;;;;;5052858;28;20128;-73
2021/01/07 03:52:25;;;;;;;39.97;15.07;;;2.50;92.60;;;;;;5053122;28;20366;-73
2021/01/07 03:54:51;;;;;;;38.47;14.20;;;2.50;92.50;;;;;;5053379;28;20066;-73
2021/01/07 03:57:17;;;;;;;38.93;15.70;;;2.50;92.30;;;;;;5054310;28;20525;-73
2021/01/07 03:59:42;;;;;;;36.17;14.90;;;2.50;92.40;;;;;;5053284;28;20020;-73
2021/01/07 04:02:08;;;;;;;43.23;14.70;;;2.50;92.40;;;;;;5052767;28;20021;-73
2021/01/07 04:04:33;;;;;;;43.03;15.73;;;2.50;92.20;;;;;;5053267;28;20458;-73
2021/01/07 04:06:59;;;;;;;43.00;15.33;;;2.60;92.40;;;;;;5053853;28;20104;-72
2021/01/07 04:09:24;;;;;;;42.37;16.70;;;2.50;92.30;;;;;;5054422;28;20029;-73
2021/01/07 04:11:50;;;;;;;37.60;16.53;;;2.50;92.20;;;;;;5054174;28;20032;-73
2021/01/07 04:14:16;;;;;;;43.23;16.30;;;2.50;92.30;;;;;;5053740;28;20361;-73
2021/01/07 04:16:41;;;;;;;39.30;16.50;;;2.50;92.30;;;;;;5054563;28;20040;-73
2021/01/07 04:19:07;;;;;;;40.57;15.37;;;2.50;92.40;;;;;;5053508;28;20032;-73
2021/01/07 04:21:33;;;;;;;43.27;16.03;;;2.50;92.40;;;;;;5054393;28;20025;-73
2021/01/07 04:23:59;;;;;;;44.63;16.30;;;2.50;92.30;;;;;;5052241;28;20190;-73
2021/01/07 04:26:25;;;;;;;40.70;15.37;;;2.40;92.30;;;;;;5052832;28;20509;-73
2021/01/07 04:28:50;;;;;;;48.23;17.47;;;2.40;92.40;;;;;;5053638;28;20470;-73
2021/01/07 04:31:16;;;;;;;43.60;17.10;;;2.30;92.40;;;;;;5053345;28;20501;-73
2021/01/07 04:33:42;;;;;;;42.50;16.33;;;2.30;92.50;;;;;;5053648;28;20060;-73
2021/01/07 04:36:07;;;;;;;44.10;15.63;;;2.30;92.60;;;;;;5053324;28;20464;-74
2021/01/07 04:38:33;;;;;;;46.30;16.60;;;2.30;92.50;;;;;;5053809;28;20067;-73
2021/01/07 04:40:59;;;;;;;40.50;15.53;;;2.30;92.50;;;;;;5053245;28;20025;-72
2021/01/07 04:43:25;;;;;;;49.03;16.63;;;2.30;92.50;;;;;;5053857;28;20021;-73
2021/01/07 04:45:51;;;;;;;46.57;17.00;;;2.30;92.60;;;;;;5052449;28;20063;-73
2021/01/07 04:48:18;;;;;;;43.23;16.47;;;2.30;92.50;;;;;;5052751;28;20052;-73
2021/01/07 04:50:44;;;;;;;46.60;15.20;;;2.30;92.50;;;;;;5052133;28;20041;-73
2021/01/07 04:53:10;;;;;;;46.33;16.33;;;2.30;92.60;;;;;;5051721;28;20025;-73
2021/01/07 04:55:35;;;;;;;46.93;17.00;;;2.30;92.50;;;;;;5053414;28;20064;-73
2021/01/07 04:58:01;;;;;;;48.40;17.03;;;2.30;92.50;;;;;;5051678;28;20020;-72
2021/01/07 05:00:29;;;;;;;47.77;15.93;;;2.30;92.50;;;;;;5053556;28;20366;-73
2021/01/07 05:02:56;;;;;;;37.77;16.40;;;2.30;92.60;;;;;;5053389;28;20021;-73
2021/01/07 05:05:22;;;;;;;43.93;16.07;;;2.30;92.60;;;;;;5051422;28;20021;-72
2021/01/07 05:07:49;;;;;;;45.87;16.80;;;2.30;92.50;;;;;;5052178;28;20021;-74
2021/01/07 05:10:15;;;;;;;39.97;16.07;;;2.30;92.40;;;;;;5051332;28;20537;-73
2021/01/07 05:12:41;;;;;;;46.17;16.73;;;2.30;92.40;;;;;;5052071;28;20060;-73
2021/01/07 05:15:09;;;;;;;40.53;15.57;;;2.30;92.40;;;;;;5051324;28;20052;-73
2021/01/07 05:17:36;;;;;;;47.87;16.77;;;2.30;92.40;;;;;;5051849;28;20028;-73
2021/01/07 05:20:09;;;;;;;47.23;16.87;;;2.40;92.40;;;;;;5051206;28;20028;-72
2021/01/07 05:22:44;;;;;;;47.67;16.63;;;2.40;92.40;;;;;;5051845;28;20025;-73
2021/01/07 05:25:13;;;;;;;44.33;17.83;;;2.30;92.40;;;;;;5052422;28;20024;-73
2021/01/07 05:27:40;;;;;;;44.80;16.73;;;2.30;92.50;;;;;;5052907;28;20017;-73
2021/01/07 05:30:08;;;;;;;44.93;15.33;;;2.30;92.50;;;;;;5050812;28;20076;-73
2021/01/07 05:32:36;;;;;;;43.83;16.20;;;2.30;92.50;;;;;;5051750;28;20020;-73
2021/01/07 05:35:04;;;;;;;43.70;16.93;;;2.30;92.60;;;;;;5052203;28;20017;-72
2021/01/07 05:37:34;;;;;;;45.37;16.33;;;2.30;92.50;;;;;;5052717;28;20025;-73
2021/01/07 05:40:00;;;;;;;40.10;15.37;;;2.30;92.50;;;;;;5052789;28;20495;-73
2021/01/07 05:42:26;;;;;;;45.87;17.30;;;2.30;92.40;;;;;;5050935;28;20017;-73
2021/01/07 05:44:54;;;;;;;43.43;16.43;;;2.30;92.50;;;;;;5052714;28;20405;-73
2021/01/07 05:47:30;;;;;;;43.10;15.07;;;2.30;92.60;;;;;;5050725;28;20500;-73
2021/01/07 05:49:56;;;;;;;45.83;17.10;;;2.30;92.50;;;;;;5051589;28;20036;-73
2021/01/07 05:52:23;;;;;;;40.57;15.73;;;2.30;92.60;;;;;;5051994;28;20252;-73
2021/01/07 05:54:53;;;;;;;40.73;15.27;;;2.30;92.50;;;;;;5051373;28;20025;-73
2021/01/07 05:57:19;;;;;;;40.53;15.27;;;2.30;92.60;;;;;;5050717;28;20013;-73
2021/01/07 05:59:48;;;;;;;40.30;15.77;;;2.30;92.50;;;;;;5051520;28;20030;-73
2021/01/07 06:02:16;;;;;;;42.60;16.40;;;2.30;92.60;;;;;;5050594;28;20025;-73
2021/01/07 06:04:50;;;;;;;40.77;16.00;;;2.40;92.60;;;;;;5052456;28;20017;-73
2021/01/07 06:07:16;;;;;;;38.37;16.13;;;2.40;92.50;;;;;;5052164;28;20028;-73
2021/01/07 06:09:45;;;;;;;39.23;14.83;;;2.40;92.50;;;;;;5051051;28;20025;-73
2021/01/07 06:12:12;;;;;;;40.50;15.53;;;2.40;92.60;;;;;;5050555;28;20576;-72
2021/01/07 06:14:41;;;;;;;37.67;14.53;;;2.40;92.50;;;;;;5052451;28;20104;-73
2021/01/07 06:17:07;;;;;;;38.80;14.57;;;2.40;92.40;;;;;;5051693;28;20124;-73
2021/01/07 06:19:36;;;;;;;40.20;15.20;;;2.40;92.40;;;;;;5051070;28;20116;-73
2021/01/07 06:22:11;;;;;;;47.17;16.03;;;2.40;92.40;;;;;;5051074;28;20470;-73
2021/01/07 06:24:38;;;;;;;38.20;15.17;;;2.50;92.40;;;;;;5051221;28;20017;-73
2021/01/07 06:27:25;;;;;;;37.07;16.37;;;2.50;92.30;;;;;;5052292;28;20017;-73
2021/01/07 06:30:20;;;;;;;35.13;15.57;;;2.50;92.30;;;;;;5051062;28;20457;-73
2021/01/07 06:33:01;;;;;;;41.17;15.37;;;2.50;92.10;;;;;;5051152;28;20111;-73
2021/01/07 06:35:50;;;;;;;33.37;14.30;;;2.50;92.00;;;;;;5051652;28;20032;-73
2021/01/07 06:38:25;;;;;;;37.13;14.67;;;2.50;92.00;;;;;;5050001;28;20085;-73
2021/01/07 06:40:52;;;;;;;31.50;14.33;;;2.50;92.00;;;;;;5051222;28;20021;-73
2021/01/07 06:43:18;;;;;;;38.10;14.63;;;2.50;92.30;;;;;;5051287;28;20025;-73
2021/01/07 06:45:52;;;;;;;38.93;15.27;;;2.50;92.10;;;;;;5051021;28;20028;-73
2021/01/07 06:48:25;;;;;;;38.17;14.20;;;2.50;92.20;;;;;;5051466;28;20024;-73
2021/01/07 06:50:55;;;;;;;39.07;13.93;;;2.50;92.20;;;;;;5052362;28;20037;-73
2021/01/07 06:53:21;;;;;;;35.13;13.93;;;2.50;92.30;;;;;;5051489;28;20057;-73
2021/01/07 06:56:11;;;;;;;35.57;14.53;;;2.50;92.30;;;;;;5052055;28;20025;-73
2021/01/07 06:58:40;;;;;;;37.63;14.77;;;2.50;92.30;;;;;;5050675;28;20021;-74
2021/01/07 07:01:08;;;;;;;36.43;14.70;;;2.50;92.40;;;;;;5052892;28;20098;-73
2021/01/07 07:03:44;;;;;;;37.53;14.20;;;2.50;92.10;;;;;;5054361;28;20071;-73
2021/01/07 07:06:14;;;;;;;39.40;14.03;;;2.50;92.10;;;;;;5055053;28;20021;-73
2021/01/07 07:08:43;;;;;;;36.70;15.63;;;2.50;92.20;;;;;;5055545;28;20028;-73
2021/01/07 07:11:11;;;;;;;35.50;14.23;;;2.50;92.20;;;;;;5054855;28;20450;-73
2021/01/07 07:13:42;;;;;;;64.17;25.67;;;2.50;92.00;;;;;;5055253;28;20082;-73
2021/01/07 07:16:10;;;;;;;54.13;21.20;;;2.50;91.90;;;;;;5053251;28;20048;-72
2021/01/07 07:18:37;;;;;;;37.60;14.97;;;2.50;91.80;;;;;;5055425;28;20086;-73
2021/01/07 07:21:14;;;;;;;35.60;14.37;;;2.50;91.60;;;;;;5054113;28;20028;-73
2021/01/07 07:23:42;;;;;;;31.67;13.70;;;2.50;91.60;;;;;;5055279;28;20025;-73
2021/01/07 07:26:11;;;;;;;39.57;15.43;;;2.50;91.70;;;;;;5053928;28;20362;-73
2021/01/07 07:28:37;;;;;;;34.87;14.67;;;2.50;91.90;;;;;;5055130;28;20036;-73
2021/01/07 07:31:03;;;;;;;73.97;28.43;;;2.50;91.70;;;;;;5053517;28;20402;-73
2021/01/07 07:33:37;;;;;;;51.50;20.53;;;2.50;91.70;;;;;;5053318;28;20021;-73
2021/01/07 07:36:05;;;;;;;37.90;15.20;;;2.50;91.70;;;;;;5053795;28;20457;-73
2021/01/07 07:38:39;;;;;;;39.50;14.80;;;2.50;91.90;;;;;;5054645;28;20013;-73
2021/01/07 07:41:10;;;;;;;40.33;15.10;;;2.50;91.90;;;;;;5053913;28;20017;-73
2021/01/07 07:43:37;;;;;;;37.57;14.73;;;2.60;92.00;;;;;;5054923;28;20021;-73
2021/01/07 07:46:05;;;;;;;39.63;15.23;;;2.50;91.90;;;;;;5054905;28;20035;-74
2021/01/07 07:48:32;;;;;;;39.53;15.23;;;2.60;91.90;;;;;;5054184;28;20025;-73
2021/01/07 07:51:09;;;;;;;39.33;14.90;;;2.60;91.80;;;;;;5053530;28;20370;-73
2021/01/07 07:53:37;;;;;;;38.23;15.20;;;2.50;91.80;;;;;;5054757;28;20082;-73
2021/01/07 07:56:04;;;;;;;39.47;15.40;;;2.50;91.80;;;;;;5054674;28;20017;-73
2021/01/07 07:58:30;;;;;;;36.67;14.63;;;2.50;91.90;;;;;;5054043;28;20270;-73
2021/01/07 08:00:59;;;;;;;37.97;14.83;;;2.50;91.80;;;;;;5054584;28;20013;-73
2021/01/07 08:03:26;;;;;;;36.87;14.57;;;2.50;91.80;;;;;;5054002;28;20017;-73
2021/01/07 08:05:52;;;;;;;38.33;15.50;;;2.50;91.80;;;;;;5053128;28;20052;-73
2021/01/07 08:08:23;;;;;;;42.57;15.77;;;2.40;91.80;;;;;;5052701;28;20370;-73
2021/01/07 08:10:49;;;;;;;38.33;14.43;;;2.50;92.00;;;;;;5054256;28;20029;-73
2021/01/07 08:13:17;;;;;;;35.57;14.30;;;2.40;91.90;;;;;;5051599;28;20094;-73
2021/01/07 08:15:56;;;;;;;37.20;14.10;;;2.40;92.00;;;;;;5054362;28;20025;-73
2021/01/07 08:18:22;;;;;;;39.03;15.03;;;2.40;92.00;;;;;;5052463;28;20025;-73
2021/01/07 08:20:51;;;;;;;38.20;14.27;;;2.40;91.90;;;;;;5052975;28;20055;-73
2021/01/07 08:23:17;;;;;;;41.70;14.70;;;2.40;91.90;;;;;;5053539;28;20021;-73
2021/01/07 08:25:51;;;;;;;36.70;15.20;;;2.40;91.90;;;;;;5053006;28;20025;-73
2021/01/07 08:28:30;;;;;;;35.53;13.97;;;2.40;91.90;;;;;;5052241;28;20067;-73
2021/01/07 08:31:01;;;;;;;36.57;14.10;;;2.40;91.80;;;;;;5054167;28;20045;-73
2021/01/07 08:33:27;;;;;;;62.10;20.93;;;2.40;91.90;;;;;;5053246;28;20097;-73
2021/01/07 08:36:02;;;;;;;49.70;19.07;;;2.50;91.90;;;;;;5054180;28;20107;-73
2021/01/07 08:38:29;;;;;;;35.77;14.40;;;2.50;91.70;;;;;;5053071;28;20017;-73
2021/01/07 08:41:23;;;;;;;39.63;13.97;;;2.50;91.60;;;;;;5053845;28;20491;-73
2021/01/07 08:43:54;;;;;;;36.73;14.10;;;2.50;91.70;;;;;;5052628;28;20362;-73
2021/01/07 08:46:25;;;;;;;34.58;13.40;;;2.50;91.70;;;;;;5051831;28;20123;-73
2021/01/07 08:48:58;;;;;;;37.07;14.27;;;2.50;91.60;;;;;;5053553;28;20032;-73
2021/01/07 08:51:24;;;;;;;34.27;13.47;;;2.50;91.70;;;;;;5051702;28;20059;-73
2021/01/07 08:53:54;;;;;;;36.27;13.80;;;2.50;91.70;;;;;;5053585;28;20024;-73
2021/01/07 08:56:34;;;;;;;37.07;13.87;;;2.50;91.60;;;;;;5051729;28;20021;-73
2021/01/07 08:59:19;;;;;;;34.13;14.13;;;2.50;91.50;;;;;;5052209;28;20060;-73
2021/01/07 09:01:46;;;;;;;34.77;13.30;;;2.40;91.60;;;;;;5052321;28;20021;-73
2021/01/07 09:04:25;;;;;;;35.60;13.83;;;2.40;91.70;;;;;;5052108;28;20071;-73
2021/01/07 09:07:06;;;;;;;37.17;14.57;;;2.40;91.70;;;;;;5053416;28;20074;-73
2021/01/07 09:09:47;;;;;;;37.47;13.98;;;2.40;91.70;;;;;;5051383;28;20029;-73
2021/01/07 09:12:15;;;;;;;37.80;13.80;;;2.50;91.50;;;;;;5053270;28;20027;-73
2021/01/07 09:14:52;;;;;;;39.77;14.57;;;2.40;91.50;;;;;;5053114;28;20028;-73
2021/01/07 09:17:19;;;;;;;34.20;14.10;;;2.40;91.60;;;;;;5052266;28;20052;-73
2021/01/07 09:19:46;;;;;;;33.17;13.30;;;2.40;91.60;;;;;;5052717;28;20413;-73
2021/01/07 09:22:24;;;;;;;39.50;13.47;;;2.50;91.60;;;;;;5051766;28;20120;-73
2021/01/07 09:24:51;;;;;;;32.73;13.77;;;2.50;91.40;;;;;;5051636;28;20024;-73
2021/01/07 09:27:22;;;;;;;52.20;20.03;;;2.50;91.20;;;;;;5051092;28;20052;-72
2021/01/07 09:29:48;;;;;;;38.47;16.30;;;2.60;91.50;;;;;;5051349;28;20028;-73
2021/01/07 09:32:14;;;;;;;37.50;14.10;;;2.70;91.30;;;;;;5051825;28;20024;-73
2021/01/07 09:34:41;;;;;;;30.30;13.57;;;2.70;91.20;;;;;;5052818;28;20028;-73
2021/01/07 09:37:21;;;;;;;35.47;14.17;;;2.70;91.00;;;;;;5051572;28;20075;-73
2021/01/07 09:39:49;;;;;;;35.37;13.90;;;2.70;90.70;;;;;;5051550;28;20145;-73
2021/01/07 09:42:17;;;;;;;36.17;14.13;;;2.70;90.70;;;;;;5052814;28;20021;-74
2021/01/07 09:44:43;;;;;;;35.63;14.13;;;2.70;90.90;;;;;;5052834;28;20049;-73
2021/01/07 09:47:09;;;;;;;36.13;14.17;;;2.70;90.40;;;;;;5052423;28;20054;-73
2021/01/07 09:49:36;;;;;;;32.10;12.70;;;2.70;90.30;;;;;;5050629;28;20473;-73
2021/01/07 09:52:03;;;;;;;35.00;13.57;;;2.70;90.40;;;;;;5050972;28;20035;-73
2021/01/07 09:54:29;;;;;;;37.57;14.90;;;2.70;90.60;;;;;;5051914;28;20025;-73
2021/01/07 09:56:56;;;;;;;30.53;13.33;;;2.80;90.80;;;;;;5052536;28;20021;-73
2021/01/07 09:59:23;;;;;;;34.17;14.00;;;2.80;90.80;;;;;;5050685;28;20120;-73
2021/01/07 10:01:54;;;;;;;31.67;12.60;;;2.90;90.40;;;;;;5052541;28;20060;-73
2021/01/07 10:04:20;;;;;;;34.83;13.43;;;3.00;90.30;;;;;;5050616;28;20462;-73
2021/01/07 10:06:46;;;;;;;35.47;13.50;;;2.90;90.20;;;;;;5051497;28;20025;-73
2021/01/07 10:09:12;;;;;;;36.00;14.77;;;2.90;90.30;;;;;;5052374;28;20029;-73
2021/01/07 10:11:38;;;;;;;35.13;13.27;;;3.00;90.30;;;;;;5050588;28;20033;-73
2021/01/07 10:14:04;;;;;;;34.37;13.83;;;3.00;90.30;;;;;;5051139;28;20472;-73
2021/01/07 10:16:29;;;;;;;29.40;12.77;;;3.00;90.20;;;;;;5052025;28;20025;-73
2021/01/07 10:18:55;;;;;;;35.97;14.07;;;3.00;89.80;;;;;;5052397;28;20104;-73
2021/01/07 10:21:23;;;;;;;28.10;12.67;;;3.00;89.50;;;;;;5050431;28;20029;-73
2021/01/07 10:23:53;;;;;;;30.97;13.27;;;3.00;88.00;;;;;;5052294;28;20380;-73
2021/01/07 10:26:20;;;;;;;32.13;12.43;;;3.00;88.40;;;;;;5051761;28;20017;-73
2021/01/07 10:28:47;;;;;;;31.27;12.87;;;3.00;89.00;;;;;;5052482;28;20025;-73
2021/01/07 10:31:18;;;;;;;29.17;12.67;;;3.00;87.60;;;;;;5050791;28;20041;-73
2021/01/07 10:33:45;;;;;;;26.93;11.73;;;3.00;87.60;;;;;;5051959;28;20075;-73
2021/01/07 10:36:14;;;;;;;34.17;12.70;;;3.00;87.60;;;;;;5053162;28;20025;-74
2021/01/07 10:38:40;;;;;;;30.80;12.40;;;3.00;87.40;;;;;;5055557;28;20024;-73
2021/01/07 10:41:07;;;;;;;31.27;13.30;;;3.00;88.10;;;;;;5054709;28;20495;-73
2021/01/07 10:43:34;;;;;;;29.80;12.33;;;3.10;87.60;;;;;;5054257;28;20017;-73
2021/01/07 10:46:00;;;;;;;27.13;12.33;;;3.10;87.20;;;;;;5055976;28;20053;-73
2021/01/07 10:48:26;;;;;;;33.67;13.57;;;3.20;87.80;;;;;;5055308;28;20027;-73
2021/01/07 10:50:52;;;;;;;26.90;11.77;;;3.30;87.20;;;;;;5055911;28;20119;-74
2021/01/07 10:53:59;;;;;;;29.93;12.00;;;3.30;86.30;;;;;;5054561;28;20025;-73
2021/01/07 10:56:46;;;;;;;25.97;11.47;;;3.40;85.60;;;;;;5016341;28;20021;-73
2021/01/07 10:59:49;;;;;;;24.07;11.17;;;3.40;85.70;;;;;;5050032;28;20064;-73
2021/01/07 11:02:22;;;;;;;24.83;10.88;;;3.50;84.70;;;;;;5049896;28;20068;-73
2021/01/07 11:05:03;;;;;;;27.70;10.97;;;3.50;84.80;;;;;;5033405;28;20033;-73
2021/01/07 11:07:44;;;;;;;29.77;11.67;;;3.60;85.40;;;;;;5016104;28;20025;-73
2021/01/07 11:10:12;;;;;;;25.90;10.87;;;3.50;84.50;;;;;;5033210;28;20030;-74
2021/01/07 11:12:47;;;;;;;26.83;10.53;;;3.50;83.60;;;;;;5032605;28;20072;-73
2021/01/07 11:15:19;;;;;;;21.30;10.17;;;3.60;84.00;;;;;;5016681;28;20036;-74
2021/01/07 11:17:54;;;;;;;25.55;10.48;;;3.70;84.20;;;;;;5015864;28;20030;-73
2021/01/07 11:20:25;;;;;;;26.40;11.53;;;3.60;82.80;;;;;;5032879;28;20033;-73
2021/01/07 11:22:51;;;;;;;22.83;10.27;;;3.70;83.20;;;;;;5033223;28;20060;-73
2021/01/07 11:25:17;;;;;;;22.63;10.07;;;3.70;83.20;;;;;;5032992;28;20515;-73
2021/01/07 11:27:44;;;;;;;25.90;11.40;;;3.60;83.60;;;;;;5042873;28;20060;-73
2021/01/07 11:30:10;;;;;;;27.67;11.17;;;3.60;83.20;;;;;;5053547;28;20052;-73
2021/01/07 11:32:37;;;;;;;22.57;10.60;;;3.60;82.70;;;;;;5054137;28;20362;-73
2021/01/07 11:35:07;;;;;;;22.20;9.90;;;3.50;83.70;;;;;;5055064;28;20063;-73
2021/01/07 11:37:42;;;;;;;21.20;10.20;;;3.60;84.10;;;;;;5054446;28;20013;-73
2021/01/07 11:40:13;;;;;;;22.53;9.97;;;3.60;83.60;;;;;;5055245;28;20032;-73
2021/01/07 11:42:59;;;;;;;21.63;9.83;;;3.60;83.70;;;;;;5053131;28;20025;-73
2021/01/07 11:45:33;;;;;;;24.37;10.00;;;3.50;83.50;;;;;;5053623;28;20028;-73
2021/01/07 11:48:08;;;;;;;20.27;9.83;;;3.60;83.50;;;;;;5053548;28;20017;-73
2021/01/07 11:50:37;;;;;;;21.47;9.47;;;3.60;84.10;;;;;;5053982;28;20409;-73
2021/01/07 11:53:06;;;;;;;20.70;9.20;;;3.70;83.20;;;;;;5054479;28;20106;-73
2021/01/07 11:55:34;;;;;;;22.60;9.60;;;3.70;82.10;;;;;;5052795;28;20028;-73
2021/01/07 11:58:00;;;;;;;21.57;8.87;;;3.80;82.10;;;;;;5054628;28;20469;-73
2021/01/07 12:00:27;;;;;;;19.27;8.97;;;3.80;81.90;;;;;;5052728;28;20021;-73
2021/01/07 12:02:55;;;;;;;22.90;9.13;;;3.80;81.90;;;;;;5053312;28;20032;-73
2021/01/07 12:05:24;;;;;;;21.77;8.80;;;3.70;80.60;;;;;;5053196;28;20171;-73
2021/01/07 12:08:02;;;;;;;22.57;9.93;;;3.70;82.00;;;;;;5053924;28;20024;-73
2021/01/07 12:10:32;;;;;;;21.50;9.43;;;3.70;82.70;;;;;;5052245;28;20028;-73
2021/01/07 12:13:06;;;;;;;17.93;8.60;;;3.80;81.80;;;;;;5054457;28;20059;-73
2021/01/07 12:15:35;;;;;;;19.77;8.70;;;3.90;80.90;;;;;;5054054;28;20020;-73
2021/01/07 12:18:03;;;;;;;20.00;10.00;;;3.90;80.70;;;;;;5053214;28;20032;-73
2021/01/07 12:20:30;;;;;;;18.93;8.83;;;3.80;80.50;;;;;;5053694;28;20028;-73
2021/01/07 12:22:57;;;;;;;18.27;8.40;;;3.80;81.20;;;;;;5054525;28;20032;-73
2021/01/07 12:25:23;;;;;;;19.43;8.60;;;3.80;81.00;;;;;;5052874;28;20079;-73
2021/01/07 12:27:49;;;;;;;22.70;9.20;;;3.70;81.40;;;;;;5052157;28;20354;-73
2021/01/07 12:30:17;;;;;;;20.57;9.60;;;3.70;81.80;;;;;;5052334;28;20090;-73
2021/01/07 12:32:51;;;;;;;19.57;8.20;;;3.80;81.70;;;;;;5052082;28;20119;-73
2021/01/07 12:35:23;;;;;;;22.10;8.93;;;3.80;81.40;;;;;;5054239;28;20025;-73
2021/01/07 12:38:07;;;;;;;18.52;8.57;;;3.80;81.00;;;;;;5052127;28;20437;-73
2021/01/07 12:40:34;;;;;;;20.10;7.83;;;3.80;80.30;;;;;;5052111;28;20090;-73
2021/01/07 12:43:00;;;;;;;19.10;8.87;;;3.90;79.80;;;;;;5052803;28;20028;-74
2021/01/07 12:45:27;;;;;;;18.93;8.37;;;3.90;80.40;;;;;;5053415;28;20021;-73